Terminal Aerodrome Forecast
Issued by NWS Raleigh/Durham, NC

Home | Current Version | Previous Version | Text Only | Print | Product List | Glossary On
Versions: 1 2 3 4 5 6 7 8 9 10 11 12 13 14 15 16 17 18 19 20 21 22 23 24 25 26 27 28 29 30 31
000
FTUS42 KRAH 251400 AAB
TAFRDU
TAF AMD
KRDU 251400Z 2514/2612 09007KT P6SM OVC008
     FM251500 07006KT P6SM OVC015
     FM252000 07005KT P6SM BKN025
     FM260100 VRB03KT P6SM SCT035
     FM260900 VRB03KT P6SM BKN025=

USA.gov is the U.S. government's official web portal to all federal, state and local government web resources and services.